sensor_id;sensor_type;location;lat;lon;timestamp;P1;durP1;ratioP1;P2;durP2;ratioP2
53513;SDS011;39768;54.148;12.174;2022-08-05T00:02:39;4.63;;;1.45;;
53513;SDS011;39768;54.148;12.174;2022-08-05T00:06:41;2.97;;;1.90;;
53513;SDS011;39768;54.148;12.174;2022-08-05T00:10:42;1.60;;;1.00;;
53513;SDS011;39768;54.148;12.174;2022-08-05T00:14:44;4.85;;;1.40;;
53513;SDS011;39768;54.148;12.174;2022-08-05T00:18:46;8.13;;;1.50;;
53513;SDS011;39768;54.148;12.174;2022-08-05T00:22:49;3.80;;;1.45;;
53513;SDS011;39768;54.148;12.174;2022-08-05T00:26:59;2.38;;;1.55;;
53513;SDS011;39768;54.148;12.174;2022-08-05T00:31:00;2.33;;;1.45;;
53513;SDS011;39768;54.148;12.174;2022-08-05T00:35:04;5.90;;;1.40;;
53513;SDS011;39768;54.148;12.174;2022-08-05T00:39:07;3.72;;;1.65;;
53513;SDS011;39768;54.148;12.174;2022-08-05T00:43:14;2.30;;;1.38;;
53513;SDS011;39768;54.148;12.174;2022-08-05T00:47:15;7.00;;;1.17;;
53513;SDS011;39768;54.148;12.174;2022-08-05T00:51:18;6.82;;;1.83;;
53513;SDS011;39768;54.148;12.174;2022-08-05T00:55:41;3.50;;;1.42;;
53513;SDS011;39768;54.148;12.174;2022-08-05T00:59:44;6.93;;;2.08;;
53513;SDS011;39768;54.148;12.174;2022-08-05T01:03:45;3.38;;;1.23;;
53513;SDS011;39768;54.148;12.174;2022-08-05T01:07:50;4.25;;;1.30;;
53513;SDS011;39768;54.148;12.174;2022-08-05T01:12:13;4.57;;;1.38;;
53513;SDS011;39768;54.148;12.174;2022-08-05T01:28:37;4.05;;;1.77;;
53513;SDS011;39768;54.148;12.174;2022-08-05T01:32:40;7.57;;;2.45;;
53513;SDS011;39768;54.148;12.174;2022-08-05T01:36:46;1.92;;;1.75;;
53513;SDS011;39768;54.148;12.174;2022-08-05T01:40:49;6.65;;;1.65;;
53513;SDS011;39768;54.148;12.174;2022-08-05T01:44:52;3.50;;;2.20;;
53513;SDS011;39768;54.148;12.174;2022-08-05T01:48:56;2.65;;;1.63;;
53513;SDS011;39768;54.148;12.174;2022-08-05T01:52:59;5.50;;;1.98;;
53513;SDS011;39768;54.148;12.174;2022-08-05T01:57:02;1.95;;;1.60;;
53513;SDS011;39768;54.148;12.174;2022-08-05T02:01:25;3.75;;;1.63;;
53513;SDS011;39768;54.148;12.174;2022-08-05T02:05:29;7.72;;;1.27;;
53513;SDS011;39768;54.148;12.174;2022-08-05T02:09:34;3.20;;;1.58;;
53513;SDS011;39768;54.148;12.174;2022-08-05T02:22:25;3.25;;;1.75;;
53513;SDS011;39768;54.148;12.174;2022-08-05T02:26:38;1.83;;;1.45;;
53513;SDS011;39768;54.148;12.174;2022-08-05T02:30:59;8.77;;;2.17;;
53513;SDS011;39768;54.148;12.174;2022-08-05T02:35:02;5.80;;;1.77;;
53513;SDS011;39768;54.148;12.174;2022-08-05T02:39:15;7.80;;;2.47;;
53513;SDS011;39768;54.148;12.174;2022-08-05T02:43:21;5.43;;;2.08;;
53513;SDS011;39768;54.148;12.174;2022-08-05T02:47:23;4.85;;;2.67;;
53513;SDS011;39768;54.148;12.174;2022-08-05T02:51:45;5.28;;;2.55;;
53513;SDS011;39768;54.148;12.174;2022-08-05T02:56:04;4.88;;;2.53;;
53513;SDS011;39768;54.148;12.174;2022-08-05T03:00:07;10.98;;;2.70;;
53513;SDS011;39768;54.148;12.174;2022-08-05T03:04:10;5.00;;;2.78;;
53513;SDS011;39768;54.148;12.174;2022-08-05T03:08:16;9.13;;;3.08;;
53513;SDS011;39768;54.148;12.174;2022-08-05T03:12:30;5.75;;;2.63;;
53513;SDS011;39768;54.148;12.174;2022-08-05T03:16:32;4.60;;;2.72;;
53513;SDS011;39768;54.148;12.174;2022-08-05T03:20:36;6.03;;;2.50;;
53513;SDS011;39768;54.148;12.174;2022-08-05T03:24:45;15.10;;;3.65;;
53513;SDS011;39768;54.148;12.174;2022-08-05T03:28:52;6.00;;;2.47;;
53513;SDS011;39768;54.148;12.174;2022-08-05T03:32:55;3.67;;;1.88;;
53513;SDS011;39768;54.148;12.174;2022-08-05T03:36:57;7.88;;;2.13;;
53513;SDS011;39768;54.148;12.174;2022-08-05T03:40:58;5.05;;;2.35;;
53513;SDS011;39768;54.148;12.174;2022-08-05T03:45:04;5.18;;;1.75;;
53513;SDS011;39768;54.148;12.174;2022-08-05T03:49:23;4.75;;;1.95;;
53513;SDS011;39768;54.148;12.174;2022-08-05T03:53:49;4.40;;;1.85;;
53513;SDS011;39768;54.148;12.174;2022-08-05T03:58:12;6.68;;;1.98;;
53513;SDS011;39768;54.148;12.174;2022-08-05T04:02:16;4.05;;;1.80;;
53513;SDS011;39768;54.148;12.174;2022-08-05T04:06:38;3.83;;;1.77;;
53513;SDS011;39768;54.148;12.174;2022-08-05T04:10:47;2.08;;;1.23;;
53513;SDS011;39768;54.148;12.174;2022-08-05T04:14:50;2.97;;;1.35;;
53513;SDS011;39768;54.148;12.174;2022-08-05T04:18:52;3.40;;;1.98;;
53513;SDS011;39768;54.148;12.174;2022-08-05T04:22:58;4.25;;;1.73;;
53513;SDS011;39768;54.148;12.174;2022-08-05T04:26:59;6.85;;;1.52;;
53513;SDS011;39768;54.148;12.174;2022-08-05T04:31:01;2.88;;;2.03;;
53513;SDS011;39768;54.148;12.174;2022-08-05T04:35:08;7.95;;;1.95;;
53513;SDS011;39768;54.148;12.174;2022-08-05T04:39:20;6.78;;;2.25;;
53513;SDS011;39768;54.148;12.174;2022-08-05T04:43:21;4.63;;;2.25;;
53513;SDS011;39768;54.148;12.174;2022-08-05T04:47:26;5.05;;;2.22;;
53513;SDS011;39768;54.148;12.174;2022-08-05T04:51:32;3.88;;;2.17;;
53513;SDS011;39768;54.148;12.174;2022-08-05T04:55:35;5.68;;;2.65;;
53513;SDS011;39768;54.148;12.174;2022-08-05T04:59:57;2.20;;;2.00;;
53513;SDS011;39768;54.148;12.174;2022-08-05T05:03:59;6.15;;;2.05;;
53513;SDS011;39768;54.148;12.174;2022-08-05T05:08:01;3.28;;;1.98;;
53513;SDS011;39768;54.148;12.174;2022-08-05T05:12:04;6.63;;;1.92;;
53513;SDS011;39768;54.148;12.174;2022-08-05T05:16:07;18.38;;;2.58;;
53513;SDS011;39768;54.148;12.174;2022-08-05T05:20:09;2.38;;;1.80;;
53513;SDS011;39768;54.148;12.174;2022-08-05T05:24:10;2.63;;;1.75;;
53513;SDS011;39768;54.148;12.174;2022-08-05T05:28:17;4.05;;;1.63;;
53513;SDS011;39768;54.148;12.174;2022-08-05T05:32:20;3.22;;;1.73;;
53513;SDS011;39768;54.148;12.174;2022-08-05T05:36:22;3.58;;;1.60;;
53513;SDS011;39768;54.148;12.174;2022-08-05T05:40:29;2.55;;;1.35;;
53513;SDS011;39768;54.148;12.174;2022-08-05T05:44:32;5.25;;;1.42;;
53513;SDS011;39768;54.148;12.174;2022-08-05T05:48:37;4.80;;;1.30;;
53513;SDS011;39768;54.148;12.174;2022-08-05T05:52:41;3.05;;;1.23;;
53513;SDS011;39768;54.148;12.174;2022-08-05T05:56:47;0.95;;;0.50;;
53513;SDS011;39768;54.148;12.174;2022-08-05T06:00:50;1.00;;;0.77;;
53513;SDS011;39768;54.148;12.174;2022-08-05T06:04:51;3.08;;;1.30;;
53513;SDS011;39768;54.148;12.174;2022-08-05T06:08:53;2.58;;;1.05;;
53513;SDS011;39768;54.148;12.174;2022-08-05T06:12:54;5.40;;;1.33;;
53513;SDS011;39768;54.148;12.174;2022-08-05T06:16:57;2.53;;;0.80;;
53513;SDS011;39768;54.148;12.174;2022-08-05T06:21:02;1.88;;;0.80;;
53513;SDS011;39768;54.148;12.174;2022-08-05T06:25:08;1.13;;;0.82;;
53513;SDS011;39768;54.148;12.174;2022-08-05T06:29:30;2.83;;;1.23;;
53513;SDS011;39768;54.148;12.174;2022-08-05T06:33:51;3.17;;;0.98;;
53513;SDS011;39768;54.148;12.174;2022-08-05T06:38:09;4.82;;;1.52;;
53513;SDS011;39768;54.148;12.174;2022-08-05T06:42:12;4.10;;;1.00;;
53513;SDS011;39768;54.148;12.174;2022-08-05T06:46:16;5.38;;;1.13;;
53513;SDS011;39768;54.148;12.174;2022-08-05T06:50:17;1.80;;;1.33;;
53513;SDS011;39768;54.148;12.174;2022-08-05T06:54:19;1.10;;;0.80;;
53513;SDS011;39768;54.148;12.174;2022-08-05T06:58:26;1.92;;;1.13;;
53513;SDS011;39768;54.148;12.174;2022-08-05T07:02:40;5.82;;;1.33;;
53513;SDS011;39768;54.148;12.174;2022-08-05T07:06:42;6.00;;;1.35;;
53513;SDS011;39768;54.148;12.174;2022-08-05T07:10:43;1.08;;;0.82;;
53513;SDS011;39768;54.148;12.174;2022-08-05T07:14:53;1.33;;;1.00;;
53513;SDS011;39768;54.148;12.174;2022-08-05T07:23:55;1.55;;;1.20;;
53513;SDS011;39768;54.148;12.174;2022-08-05T07:28:01;1.20;;;1.02;;
53513;SDS011;39768;54.148;12.174;2022-08-05T07:32:11;1.73;;;1.35;;
53513;SDS011;39768;54.148;12.174;2022-08-05T07:36:15;2.35;;;0.95;;
53513;SDS011;39768;54.148;12.174;2022-08-05T07:40:23;2.33;;;0.77;;
53513;SDS011;39768;54.148;12.174;2022-08-05T07:44:32;0.70;;;0.70;;
53513;SDS011;39768;54.148;12.174;2022-08-05T07:48:36;0.82;;;0.68;;
53513;SDS011;39768;54.148;12.174;2022-08-05T07:52:57;4.15;;;0.95;;
53513;SDS011;39768;54.148;12.174;2022-08-05T07:57:00;3.80;;;1.13;;
53513;SDS011;39768;54.148;12.174;2022-08-05T08:01:22;1.80;;;1.63;;
53513;SDS011;39768;54.148;12.174;2022-08-05T08:05:30;1.20;;;1.10;;
53513;SDS011;39768;54.148;12.174;2022-08-05T08:09:39;2.83;;;1.08;;
53513;SDS011;39768;54.148;12.174;2022-08-05T08:13:41;2.65;;;1.35;;
53513;SDS011;39768;54.148;12.174;2022-08-05T08:18:01;2.67;;;1.38;;
53513;SDS011;39768;54.148;12.174;2022-08-05T08:22:08;1.60;;;1.30;;
53513;SDS011;39768;54.148;12.174;2022-08-05T08:26:16;5.13;;;1.50;;
53513;SDS011;39768;54.148;12.174;2022-08-05T08:30:27;1.40;;;1.30;;
53513;SDS011;39768;54.148;12.174;2022-08-05T08:34:47;2.95;;;1.33;;
53513;SDS011;39768;54.148;12.174;2022-08-05T08:38:49;3.35;;;1.33;;
53513;SDS011;39768;54.148;12.174;2022-08-05T08:42:53;1.90;;;1.77;;
53513;SDS011;39768;54.148;12.174;2022-08-05T08:46:57;3.55;;;1.52;;
53513;SDS011;39768;54.148;12.174;2022-08-05T08:50:59;2.95;;;1.83;;
53513;SDS011;39768;54.148;12.174;2022-08-05T08:55:22;1.73;;;1.25;;
53513;SDS011;39768;54.148;12.174;2022-08-05T08:59:44;2.85;;;1.33;;
53513;SDS011;39768;54.148;12.174;2022-08-05T09:03:49;4.57;;;1.98;;
53513;SDS011;39768;54.148;12.174;2022-08-05T09:07:57;8.80;;;1.63;;
53513;SDS011;39768;54.148;12.174;2022-08-05T09:12:00;2.53;;;1.30;;
53513;SDS011;39768;54.148;12.174;2022-08-05T09:16:22;1.95;;;1.42;;
53513;SDS011;39768;54.148;12.174;2022-08-05T09:20:27;2.28;;;1.10;;
53513;SDS011;39768;54.148;12.174;2022-08-05T09:24:37;1.70;;;1.38;;
53513;SDS011;39768;54.148;12.174;2022-08-05T09:28:39;2.65;;;1.48;;
53513;SDS011;39768;54.148;12.174;2022-08-05T09:32:41;4.35;;;1.70;;
53513;SDS011;39768;54.148;12.174;2022-08-05T09:36:47;2.28;;;1.50;;
53513;SDS011;39768;54.148;12.174;2022-08-05T09:41:05;2.45;;;1.20;;
53513;SDS011;39768;54.148;12.174;2022-08-05T09:45:08;2.17;;;1.75;;
53513;SDS011;39768;54.148;12.174;2022-08-05T09:49:30;4.25;;;1.35;;
53513;SDS011;39768;54.148;12.174;2022-08-05T09:53:51;1.58;;;1.48;;
53513;SDS011;39768;54.148;12.174;2022-08-05T09:58:08;3.97;;;1.13;;
53513;SDS011;39768;54.148;12.174;2022-08-05T10:02:11;8.00;;;1.58;;
53513;SDS011;39768;54.148;12.174;2022-08-05T10:06:12;1.48;;;1.38;;
53513;SDS011;39768;54.148;12.174;2022-08-05T10:10:17;1.50;;;1.25;;
53513;SDS011;39768;54.148;12.174;2022-08-05T10:14:32;3.88;;;1.67;;
53513;SDS011;39768;54.148;12.174;2022-08-05T10:18:33;2.45;;;1.55;;
53513;SDS011;39768;54.148;12.174;2022-08-05T10:22:36;1.67;;;1.58;;
53513;SDS011;39768;54.148;12.174;2022-08-05T10:26:50;1.88;;;1.70;;
53513;SDS011;39768;54.148;12.174;2022-08-05T10:30:55;1.95;;;1.30;;
53513;SDS011;39768;54.148;12.174;2022-08-05T10:35:16;5.53;;;1.80;;
53513;SDS011;39768;54.148;12.174;2022-08-05T10:39:19;1.77;;;1.65;;
53513;SDS011;39768;54.148;12.174;2022-08-05T10:47:43;2.80;;;1.85;;
53513;SDS011;39768;54.148;12.174;2022-08-05T10:52:05;5.80;;;1.70;;
53513;SDS011;39768;54.148;12.174;2022-08-05T10:56:14;4.05;;;1.45;;
53513;SDS011;39768;54.148;12.174;2022-08-05T11:00:28;1.52;;;1.40;;
53513;SDS011;39768;54.148;12.174;2022-08-05T11:04:30;1.98;;;1.88;;
53513;SDS011;39768;54.148;12.174;2022-08-05T11:08:36;2.60;;;1.50;;
53513;SDS011;39768;54.148;12.174;2022-08-05T11:12:43;2.78;;;1.83;;
53513;SDS011;39768;54.148;12.174;2022-08-05T11:21:30;3.25;;;1.85;;
53513;SDS011;39768;54.148;12.174;2022-08-05T11:26:02;5.03;;;1.92;;
53513;SDS011;39768;54.148;12.174;2022-08-05T11:30:09;1.85;;;1.48;;
53513;SDS011;39768;54.148;12.174;2022-08-05T11:34:10;2.97;;;1.08;;
53513;SDS011;39768;54.148;12.174;2022-08-05T11:38:16;2.78;;;2.00;;
53513;SDS011;39768;54.148;12.174;2022-08-05T11:42:37;2.30;;;1.73;;
53513;SDS011;39768;54.148;12.174;2022-08-05T11:51:02;2.40;;;1.60;;
53513;SDS011;39768;54.148;12.174;2022-08-05T11:55:04;2.55;;;1.63;;
53513;SDS011;39768;54.148;12.174;2022-08-05T11:59:14;1.95;;;1.73;;
53513;SDS011;39768;54.148;12.174;2022-08-05T12:03:21;2.10;;;1.38;;
53513;SDS011;39768;54.148;12.174;2022-08-05T12:07:32;2.22;;;1.50;;
53513;SDS011;39768;54.148;12.174;2022-08-05T12:11:54;1.98;;;1.20;;
53513;SDS011;39768;54.148;12.174;2022-08-05T12:15:55;1.52;;;1.25;;
53513;SDS011;39768;54.148;12.174;2022-08-05T12:19:58;0.80;;;0.80;;
53513;SDS011;39768;54.148;12.174;2022-08-05T12:24:20;9.65;;;1.30;;
53513;SDS011;39768;54.148;12.174;2022-08-05T12:28:34;1.55;;;1.00;;
53513;SDS011;39768;54.148;12.174;2022-08-05T12:32:44;2.80;;;1.15;;
53513;SDS011;39768;54.148;12.174;2022-08-05T12:36:50;2.70;;;0.75;;
53513;SDS011;39768;54.148;12.174;2022-08-05T12:40:54;1.17;;;0.90;;
53513;SDS011;39768;54.148;12.174;2022-08-05T12:45:06;0.73;;;0.45;;
53513;SDS011;39768;54.148;12.174;2022-08-05T12:49:13;5.35;;;1.10;;
53513;SDS011;39768;54.148;12.174;2022-08-05T12:53:15;2.70;;;0.75;;
53513;SDS011;39768;54.148;12.174;2022-08-05T12:57:18;2.38;;;0.65;;
53513;SDS011;39768;54.148;12.174;2022-08-05T13:01:24;1.10;;;1.00;;
53513;SDS011;39768;54.148;12.174;2022-08-05T13:05:45;1.15;;;0.65;;
53513;SDS011;39768;54.148;12.174;2022-08-05T13:09:51;0.77;;;0.77;;
53513;SDS011;39768;54.148;12.174;2022-08-05T13:13:58;1.27;;;0.67;;
53513;SDS011;39768;54.148;12.174;2022-08-05T13:18:07;5.97;;;0.63;;
53513;SDS011;39768;54.148;12.174;2022-08-05T13:22:10;1.17;;;0.47;;
53513;SDS011;39768;54.148;12.174;2022-08-05T13:26:12;4.07;;;0.45;;
53513;SDS011;39768;54.148;12.174;2022-08-05T13:30:16;2.08;;;0.50;;
53513;SDS011;39768;54.148;12.174;2022-08-05T13:34:37;0.82;;;0.65;;
53513;SDS011;39768;54.148;12.174;2022-08-05T13:38:41;0.45;;;0.43;;
53513;SDS011;39768;54.148;12.174;2022-08-05T13:42:43;2.88;;;0.60;;
53513;SDS011;39768;54.148;12.174;2022-08-05T13:46:46;0.30;;;0.30;;
53513;SDS011;39768;54.148;12.174;2022-08-05T13:51:07;1.15;;;0.45;;
53513;SDS011;39768;54.148;12.174;2022-08-05T13:55:09;0.30;;;0.30;;
53513;SDS011;39768;54.148;12.174;2022-08-05T13:59:31;0.57;;;0.40;;
53513;SDS011;39768;54.148;12.174;2022-08-05T14:03:32;0.22;;;0.22;;
53513;SDS011;39768;54.148;12.174;2022-08-05T14:07:35;0.45;;;0.45;;
53513;SDS011;39768;54.148;12.174;2022-08-05T14:11:58;0.30;;;0.30;;
53513;SDS011;39768;54.148;12.174;2022-08-05T14:16:05;0.30;;;0.30;;
53513;SDS011;39768;54.148;12.174;2022-08-05T14:20:12;2.80;;;0.35;;
53513;SDS011;39768;54.148;12.174;2022-08-05T14:24:18;0.60;;;0.40;;
53513;SDS011;39768;54.148;12.174;2022-08-05T14:28:20;0.30;;;0.30;;
53513;SDS011;39768;54.148;12.174;2022-08-05T14:32:27;6.68;;;0.45;;
53513;SDS011;39768;54.148;12.174;2022-08-05T14:36:31;3.40;;;0.30;;
53513;SDS011;39768;54.148;12.174;2022-08-05T14:40:32;1.33;;;0.30;;
53513;SDS011;39768;54.148;12.174;2022-08-05T14:44:34;0.22;;;0.20;;
53513;SDS011;39768;54.148;12.174;2022-08-05T14:48:36;2.35;;;0.30;;
53513;SDS011;39768;54.148;12.174;2022-08-05T14:52:38;0.40;;;0.15;;
53513;SDS011;39768;54.148;12.174;2022-08-05T14:56:54;1.00;;;0.40;;
53513;SDS011;39768;54.148;12.174;2022-08-05T15:00:55;1.25;;;0.20;;
53513;SDS011;39768;54.148;12.174;2022-08-05T15:05:00;0.20;;;0.20;;
53513;SDS011;39768;54.148;12.174;2022-08-05T15:09:13;0.13;;;0.10;;
53513;SDS011;39768;54.148;12.174;2022-08-05T15:13:15;0.63;;;0.20;;
53513;SDS011;39768;54.148;12.174;2022-08-05T15:17:20;0.25;;;0.25;;
53513;SDS011;39768;54.148;12.174;2022-08-05T15:21:41;0.10;;;0.10;;
53513;SDS011;39768;54.148;12.174;2022-08-05T15:25:43;0.20;;;0.20;;
53513;SDS011;39768;54.148;12.174;2022-08-05T15:29:54;1.23;;;0.30;;
53513;SDS011;39768;54.148;12.174;2022-08-05T15:33:57;0.38;;;0.32;;
53513;SDS011;39768;54.148;12.174;2022-08-05T15:38:18;0.22;;;0.20;;
53513;SDS011;39768;54.148;12.174;2022-08-05T15:42:36;0.30;;;0.30;;
53513;SDS011;39768;54.148;12.174;2022-08-05T15:46:59;0.32;;;0.25;;
53513;SDS011;39768;54.148;12.174;2022-08-05T15:51:01;0.65;;;0.30;;
53513;SDS011;39768;54.148;12.174;2022-08-05T15:55:07;0.70;;;0.40;;
53513;SDS011;39768;54.148;12.174;2022-08-05T15:59:15;0.70;;;0.40;;
53513;SDS011;39768;54.148;12.174;2022-08-05T16:03:22;0.40;;;0.40;;
53513;SDS011;39768;54.148;12.174;2022-08-05T16:07:23;0.60;;;0.30;;
53513;SDS011;39768;54.148;12.174;2022-08-05T16:11:29;0.20;;;0.20;;
53513;SDS011;39768;54.148;12.174;2022-08-05T16:15:43;0.35;;;0.20;;
53513;SDS011;39768;54.148;12.174;2022-08-05T16:19:47;0.20;;;0.20;;
53513;SDS011;39768;54.148;12.174;2022-08-05T16:24:06;0.20;;;0.20;;
53513;SDS011;39768;54.148;12.174;2022-08-05T16:28:27;1.88;;;0.40;;
53513;SDS011;39768;54.148;12.174;2022-08-05T16:32:29;0.30;;;0.30;;
53513;SDS011;39768;54.148;12.174;2022-08-05T16:36:31;0.05;;;0.03;;
53513;SDS011;39768;54.148;12.174;2022-08-05T16:40:34;0.17;;;0.10;;
53513;SDS011;39768;54.148;12.174;2022-08-05T16:44:36;0.20;;;0.10;;
53513;SDS011;39768;54.148;12.174;2022-08-05T16:48:38;0.10;;;0.10;;
53513;SDS011;39768;54.148;12.174;2022-08-05T16:52:39;0.00;;;0.00;;
53513;SDS011;39768;54.148;12.174;2022-08-05T16:56:46;0.30;;;0.10;;
53513;SDS011;39768;54.148;12.174;2022-08-05T17:00:52;0.88;;;0.40;;
53513;SDS011;39768;54.148;12.174;2022-08-05T17:04:55;0.00;;;0.00;;
53513;SDS011;39768;54.148;12.174;2022-08-05T17:08:56;0.20;;;0.20;;
53513;SDS011;39768;54.148;12.174;2022-08-05T17:12:59;0.65;;;0.15;;
53513;SDS011;39768;54.148;12.174;2022-08-05T17:17:00;1.10;;;0.20;;
53513;SDS011;39768;54.148;12.174;2022-08-05T17:21:04;0.10;;;0.10;;
53513;SDS011;39768;54.148;12.174;2022-08-05T17:25:06;0.68;;;0.20;;
53513;SDS011;39768;54.148;12.174;2022-08-05T17:29:27;0.10;;;0.10;;
53513;SDS011;39768;54.148;12.174;2022-08-05T17:33:39;0.10;;;0.10;;
53513;SDS011;39768;54.148;12.174;2022-08-05T17:37:51;0.10;;;0.10;;
53513;SDS011;39768;54.148;12.174;2022-08-05T17:42:01;0.28;;;0.28;;
53513;SDS011;39768;54.148;12.174;2022-08-05T17:46:20;0.10;;;0.10;;
53513;SDS011;39768;54.148;12.174;2022-08-05T17:50:27;0.85;;;0.22;;
53513;SDS011;39768;54.148;12.174;2022-08-05T17:54:31;0.20;;;0.20;;
53513;SDS011;39768;54.148;12.174;2022-08-05T17:58:34;0.10;;;0.10;;
53513;SDS011;39768;54.148;12.174;2022-08-05T18:02:38;0.38;;;0.20;;
53513;SDS011;39768;54.148;12.174;2022-08-05T18:06:39;3.50;;;0.28;;
53513;SDS011;39768;54.148;12.174;2022-08-05T18:10:45;0.45;;;0.32;;
53513;SDS011;39768;54.148;12.174;2022-08-05T18:14:49;0.13;;;0.13;;
53513;SDS011;39768;54.148;12.174;2022-08-05T18:18:51;0.10;;;0.10;;
53513;SDS011;39768;54.148;12.174;2022-08-05T18:22:52;0.73;;;0.20;;
53513;SDS011;39768;54.148;12.174;2022-08-05T18:26:57;0.20;;;0.20;;
53513;SDS011;39768;54.148;12.174;2022-08-05T18:30:59;0.20;;;0.20;;
53513;SDS011;39768;54.148;12.174;2022-08-05T18:35:01;0.30;;;0.25;;
53513;SDS011;39768;54.148;12.174;2022-08-05T18:39:05;0.57;;;0.40;;
53513;SDS011;39768;54.148;12.174;2022-08-05T18:43:26;0.40;;;0.30;;
53513;SDS011;39768;54.148;12.174;2022-08-05T18:50:00;0.50;;;0.30;;
53513;SDS011;39768;54.148;12.174;2022-08-05T18:54:40;0.70;;;0.20;;
53513;SDS011;39768;54.148;12.174;2022-08-05T18:58:46;1.58;;;0.30;;
53513;SDS011;39768;54.148;12.174;2022-08-05T19:02:51;0.30;;;0.30;;
53513;SDS011;39768;54.148;12.174;2022-08-05T19:06:52;0.28;;;0.28;;
53513;SDS011;39768;54.148;12.174;2022-08-05T19:10:54;0.25;;;0.25;;
53513;SDS011;39768;54.148;12.174;2022-08-05T19:14:56;0.60;;;0.38;;
53513;SDS011;39768;54.148;12.174;2022-08-05T19:19:02;2.30;;;0.40;;
53513;SDS011;39768;54.148;12.174;2022-08-05T19:23:05;0.20;;;0.20;;
53513;SDS011;39768;54.148;12.174;2022-08-05T19:27:08;0.98;;;0.70;;
53513;SDS011;39768;54.148;12.174;2022-08-05T19:31:13;0.25;;;0.20;;
53513;SDS011;39768;54.148;12.174;2022-08-05T19:35:19;1.40;;;0.40;;
53513;SDS011;39768;54.148;12.174;2022-08-05T19:39:22;0.95;;;0.75;;
53513;SDS011;39768;54.148;12.174;2022-08-05T19:43:28;0.68;;;0.65;;
53513;SDS011;39768;54.148;12.174;2022-08-05T19:47:49;0.85;;;0.35;;
53513;SDS011;39768;54.148;12.174;2022-08-05T19:51:56;1.25;;;0.55;;
53513;SDS011;39768;54.148;12.174;2022-08-05T19:56:19;0.43;;;0.43;;
53513;SDS011;39768;54.148;12.174;2022-08-05T20:00:34;1.08;;;0.40;;
53513;SDS011;39768;54.148;12.174;2022-08-05T20:04:36;1.38;;;0.50;;
53513;SDS011;39768;54.148;12.174;2022-08-05T20:08:43;1.65;;;0.57;;
53513;SDS011;39768;54.148;12.174;2022-08-05T20:12:49;1.27;;;0.73;;
53513;SDS011;39768;54.148;12.174;2022-08-05T20:16:50;1.27;;;0.60;;
53513;SDS011;39768;54.148;12.174;2022-08-05T20:20:52;1.27;;;0.80;;
53513;SDS011;39768;54.148;12.174;2022-08-05T20:24:55;2.72;;;0.50;;
53513;SDS011;39768;54.148;12.174;2022-08-05T20:28:57;0.30;;;0.20;;
53513;SDS011;39768;54.148;12.174;2022-08-05T20:33:01;0.35;;;0.15;;
53513;SDS011;39768;54.148;12.174;2022-08-05T20:37:03;0.20;;;0.20;;
53513;SDS011;39768;54.148;12.174;2022-08-05T20:41:18;0.60;;;0.20;;
53513;SDS011;39768;54.148;12.174;2022-08-05T20:45:27;0.20;;;0.20;;
53513;SDS011;39768;54.148;12.174;2022-08-05T20:49:48;0.63;;;0.30;;
53513;SDS011;39768;54.148;12.174;2022-08-05T20:53:51;0.10;;;0.10;;
53513;SDS011;39768;54.148;12.174;2022-08-05T20:57:57;0.45;;;0.13;;
53513;SDS011;39768;54.148;12.174;2022-08-05T21:01:58;1.50;;;0.30;;
53513;SDS011;39768;54.148;12.174;2022-08-05T21:06:00;1.67;;;0.45;;
53513;SDS011;39768;54.148;12.174;2022-08-05T21:10:02;0.32;;;0.20;;
53513;SDS011;39768;54.148;12.174;2022-08-05T21:14:05;0.20;;;0.20;;
53513;SDS011;39768;54.148;12.174;2022-08-05T21:18:07;1.85;;;0.40;;
53513;SDS011;39768;54.148;12.174;2022-08-05T21:22:11;1.85;;;0.43;;
53513;SDS011;39768;54.148;12.174;2022-08-05T21:26:14;8.70;;;0.30;;
53513;SDS011;39768;54.148;12.174;2022-08-05T21:30:16;0.10;;;0.10;;
53513;SDS011;39768;54.148;12.174;2022-08-05T21:34:18;1.02;;;0.32;;
53513;SDS011;39768;54.148;12.174;2022-08-05T21:38:22;2.42;;;0.30;;
53513;SDS011;39768;54.148;12.174;2022-08-05T21:42:24;0.20;;;0.20;;
53513;SDS011;39768;54.148;12.174;2022-08-05T21:46:45;0.30;;;0.30;;
53513;SDS011;39768;54.148;12.174;2022-08-05T21:50:48;0.40;;;0.28;;
53513;SDS011;39768;54.148;12.174;2022-08-05T21:54:55;0.15;;;0.15;;
53513;SDS011;39768;54.148;12.174;2022-08-05T21:58:57;0.15;;;0.15;;
53513;SDS011;39768;54.148;12.174;2022-08-05T22:02:58;0.75;;;0.35;;
53513;SDS011;39768;54.148;12.174;2022-08-05T22:07:00;1.65;;;0.38;;
53513;SDS011;39768;54.148;12.174;2022-08-05T22:11:01;0.08;;;0.08;;
53513;SDS011;39768;54.148;12.174;2022-08-05T22:15:13;0.50;;;0.20;;
53513;SDS011;39768;54.148;12.174;2022-08-05T22:19:17;0.10;;;0.10;;
53513;SDS011;39768;54.148;12.174;2022-08-05T22:23:38;0.98;;;0.10;;
53513;SDS011;39768;54.148;12.174;2022-08-05T22:28:04;0.10;;;0.10;;
53513;SDS011;39768;54.148;12.174;2022-08-05T22:32:12;2.33;;;0.40;;
53513;SDS011;39768;54.148;12.174;2022-08-05T22:36:18;0.47;;;0.15;;
53513;SDS011;39768;54.148;12.174;2022-08-05T22:40:24;1.30;;;0.22;;
53513;SDS011;39768;54.148;12.174;2022-08-05T22:44:25;0.30;;;0.10;;
53513;SDS011;39768;54.148;12.174;2022-08-05T22:48:29;0.17;;;0.10;;
53513;SDS011;39768;54.148;12.174;2022-08-05T22:52:32;0.10;;;0.10;;
53513;SDS011;39768;54.148;12.174;2022-08-05T22:56:34;0.30;;;0.10;;
53513;SDS011;39768;54.148;12.174;2022-08-05T23:00:40;0.20;;;0.20;;
53513;SDS011;39768;54.148;12.174;2022-08-05T23:04:41;4.13;;;0.20;;
53513;SDS011;39768;54.148;12.174;2022-08-05T23:08:51;0.40;;;0.20;;
53513;SDS011;39768;54.148;12.174;2022-08-05T23:12:53;0.13;;;0.13;;
53513;SDS011;39768;54.148;12.174;2022-08-05T23:16:56;0.10;;;0.10;;
53513;SDS011;39768;54.148;12.174;2022-08-05T23:21:18;0.30;;;0.20;;
53513;SDS011;39768;54.148;12.174;2022-08-05T23:25:20;0.15;;;0.10;;
53513;SDS011;39768;54.148;12.174;2022-08-05T23:29:42;0.40;;;0.13;;
53513;SDS011;39768;54.148;12.174;2022-08-05T23:33:46;0.70;;;0.30;;
53513;SDS011;39768;54.148;12.174;2022-08-05T23:42:07;0.20;;;0.20;;
53513;SDS011;39768;54.148;12.174;2022-08-05T23:46:29;1.75;;;0.32;;
53513;SDS011;39768;54.148;12.174;2022-08-05T23:50:31;2.20;;;0.30;;
53513;SDS011;39768;54.148;12.174;2022-08-05T23:54:33;0.10;;;0.10;;
53513;SDS011;39768;54.148;12.174;2022-08-05T23:58:39;0.10;;;0.10;;
